sensor_id;sensor_type;location;lat;lon;timestamp;temperature;humidity
1083;DHT22;530;51.448;7.238;2022-08-21T00:00:39;17.50;99.90
1083;DHT22;530;51.448;7.238;2022-08-21T00:03:08;17.50;99.90
1083;DHT22;530;51.448;7.238;2022-08-21T00:05:38;17.50;99.90
1083;DHT22;530;51.448;7.238;2022-08-21T00:08:04;17.40;99.90
1083;DHT22;530;51.448;7.238;2022-08-21T00:10:30;17.40;99.90
1083;DHT22;530;51.448;7.238;2022-08-21T00:12:56;17.40;99.90
1083;DHT22;530;51.448;7.238;2022-08-21T00:15:27;17.40;99.90
1083;DHT22;530;51.448;7.238;2022-08-21T00:17:55;17.30;99.90
1083;DHT22;530;51.448;7.238;2022-08-21T00:20:22;17.30;99.90
1083;DHT22;530;51.448;7.238;2022-08-21T00:22:48;17.30;99.90
1083;DHT22;530;51.448;7.238;2022-08-21T00:25:14;17.30;99.90
1083;DHT22;530;51.448;7.238;2022-08-21T00:27:41;17.30;99.90
1083;DHT22;530;51.448;7.238;2022-08-21T00:30:11;17.30;99.90
1083;DHT22;530;51.448;7.238;2022-08-21T00:32:38;17.30;99.90
1083;DHT22;530;51.448;7.238;2022-08-21T00:35:07;17.40;99.90
1083;DHT22;530;51.448;7.238;2022-08-21T00:37:33;17.30;99.90
1083;DHT22;530;51.448;7.238;2022-08-21T00:39:59;17.20;99.90
1083;DHT22;530;51.448;7.238;2022-08-21T00:42:25;17.20;99.90
1083;DHT22;530;51.448;7.238;2022-08-21T00:44:51;17.10;99.90
1083;DHT22;530;51.448;7.238;2022-08-21T00:47:18;17.10;99.90
1083;DHT22;530;51.448;7.238;2022-08-21T00:49:44;17.20;99.90
1083;DHT22;530;51.448;7.238;2022-08-21T00:52:15;17.10;99.90
1083;DHT22;530;51.448;7.238;2022-08-21T00:54:43;17.10;99.90
1083;DHT22;530;51.448;7.238;2022-08-21T00:57:19;17.00;99.90
1083;DHT22;530;51.448;7.238;2022-08-21T00:59:49;17.00;99.90
1083;DHT22;530;51.448;7.238;2022-08-21T01:02:17;17.00;99.90
1083;DHT22;530;51.448;7.238;2022-08-21T01:04:43;17.00;99.90
1083;DHT22;530;51.448;7.238;2022-08-21T01:07:09;17.00;99.90
1083;DHT22;530;51.448;7.238;2022-08-21T01:09:37;17.00;99.90
1083;DHT22;530;51.448;7.238;2022-08-21T01:12:03;17.00;99.90
1083;DHT22;530;51.448;7.238;2022-08-21T01:14:30;17.00;99.90
1083;DHT22;530;51.448;7.238;2022-08-21T01:16:56;17.00;99.90
1083;DHT22;530;51.448;7.238;2022-08-21T01:19:24;17.00;99.90
1083;DHT22;530;51.448;7.238;2022-08-21T01:21:50;17.00;99.90
1083;DHT22;530;51.448;7.238;2022-08-21T01:24:16;17.10;99.90
1083;DHT22;530;51.448;7.238;2022-08-21T01:26:43;17.10;99.90
1083;DHT22;530;51.448;7.238;2022-08-21T01:31:56;17.10;99.90
1083;DHT22;530;51.448;7.238;2022-08-21T01:34:22;17.10;99.90
1083;DHT22;530;51.448;7.238;2022-08-21T01:36:48;17.10;99.90
1083;DHT22;530;51.448;7.238;2022-08-21T01:39:15;17.10;99.90
1083;DHT22;530;51.448;7.238;2022-08-21T01:41:41;17.10;99.90
1083;DHT22;530;51.448;7.238;2022-08-21T01:44:07;17.10;99.90
1083;DHT22;530;51.448;7.238;2022-08-21T01:46:33;17.00;99.90
1083;DHT22;530;51.448;7.238;2022-08-21T01:48:59;16.90;99.90
1083;DHT22;530;51.448;7.238;2022-08-21T01:51:25;16.80;99.90
1083;DHT22;530;51.448;7.238;2022-08-21T01:53:50;16.70;99.90
1083;DHT22;530;51.448;7.238;2022-08-21T01:56:17;16.60;99.90
1083;DHT22;530;51.448;7.238;2022-08-21T01:58:45;16.60;99.90
1083;DHT22;530;51.448;7.238;2022-08-21T02:01:11;16.50;99.90
1083;DHT22;530;51.448;7.238;2022-08-21T02:03:37;16.40;99.90
1083;DHT22;530;51.448;7.238;2022-08-21T02:06:04;16.40;99.90
1083;DHT22;530;51.448;7.238;2022-08-21T02:08:30;16.40;99.90
1083;DHT22;530;51.448;7.238;2022-08-21T02:10:56;16.30;99.90
1083;DHT22;530;51.448;7.238;2022-08-21T02:13:22;16.30;99.90
1083;DHT22;530;51.448;7.238;2022-08-21T02:15:48;16.30;99.90
1083;DHT22;530;51.448;7.238;2022-08-21T02:18:14;16.20;99.90
1083;DHT22;530;51.448;7.238;2022-08-21T02:20:42;16.20;99.90
1083;DHT22;530;51.448;7.238;2022-08-21T02:23:09;16.20;99.90
1083;DHT22;530;51.448;7.238;2022-08-21T02:25:36;16.20;99.90
1083;DHT22;530;51.448;7.238;2022-08-21T02:28:08;16.10;99.90
1083;DHT22;530;51.448;7.238;2022-08-21T02:30:37;16.10;99.90
1083;DHT22;530;51.448;7.238;2022-08-21T02:33:05;16.00;99.90
1083;DHT22;530;51.448;7.238;2022-08-21T02:35:31;16.00;99.90
1083;DHT22;530;51.448;7.238;2022-08-21T02:38:00;16.00;99.90
1083;DHT22;530;51.448;7.238;2022-08-21T02:40:30;15.90;99.90
1083;DHT22;530;51.448;7.238;2022-08-21T02:42:56;15.90;99.90
1083;DHT22;530;51.448;7.238;2022-08-21T02:45:23;15.90;99.90
1083;DHT22;530;51.448;7.238;2022-08-21T02:47:57;16.00;99.90
1083;DHT22;530;51.448;7.238;2022-08-21T02:50:27;15.90;99.90
1083;DHT22;530;51.448;7.238;2022-08-21T02:52:53;15.90;99.90
1083;DHT22;530;51.448;7.238;2022-08-21T02:55:20;15.90;99.90
1083;DHT22;530;51.448;7.238;2022-08-21T02:57:47;15.90;99.90
1083;DHT22;530;51.448;7.238;2022-08-21T03:00:14;15.80;99.90
1083;DHT22;530;51.448;7.238;2022-08-21T03:02:40;15.80;99.90
1083;DHT22;530;51.448;7.238;2022-08-21T03:05:07;15.80;99.90
1083;DHT22;530;51.448;7.238;2022-08-21T03:07:35;15.90;99.90
1083;DHT22;530;51.448;7.238;2022-08-21T03:10:01;15.80;99.90
1083;DHT22;530;51.448;7.238;2022-08-21T03:12:27;15.80;99.90
1083;DHT22;530;51.448;7.238;2022-08-21T03:14:53;15.80;99.90
1083;DHT22;530;51.448;7.238;2022-08-21T03:17:18;15.80;99.90
1083;DHT22;530;51.448;7.238;2022-08-21T03:19:44;15.80;99.90
1083;DHT22;530;51.448;7.238;2022-08-21T03:22:09;15.80;99.90
1083;DHT22;530;51.448;7.238;2022-08-21T03:24:35;15.80;99.90
1083;DHT22;530;51.448;7.238;2022-08-21T03:27:01;15.70;99.90
1083;DHT22;530;51.448;7.238;2022-08-21T03:29:26;15.60;99.90
1083;DHT22;530;51.448;7.238;2022-08-21T03:31:52;15.60;99.90
1083;DHT22;530;51.448;7.238;2022-08-21T03:34:20;15.60;99.90
1083;DHT22;530;51.448;7.238;2022-08-21T03:36:47;15.60;99.90
1083;DHT22;530;51.448;7.238;2022-08-21T03:39:14;15.60;99.90
1083;DHT22;530;51.448;7.238;2022-08-21T03:41:40;15.50;99.90
1083;DHT22;530;51.448;7.238;2022-08-21T03:44:07;15.50;99.90
1083;DHT22;530;51.448;7.238;2022-08-21T03:46:32;15.50;99.90
1083;DHT22;530;51.448;7.238;2022-08-21T03:48:58;15.40;99.90
1083;DHT22;530;51.448;7.238;2022-08-21T03:51:24;15.40;99.90
1083;DHT22;530;51.448;7.238;2022-08-21T03:53:49;15.40;99.90
1083;DHT22;530;51.448;7.238;2022-08-21T03:56:15;15.40;99.90
1083;DHT22;530;51.448;7.238;2022-08-21T03:58:42;15.40;99.90
1083;DHT22;530;51.448;7.238;2022-08-21T04:01:07;15.40;99.90
1083;DHT22;530;51.448;7.238;2022-08-21T04:03:36;15.50;99.90
1083;DHT22;530;51.448;7.238;2022-08-21T04:06:02;15.50;99.90
1083;DHT22;530;51.448;7.238;2022-08-21T04:08:28;15.50;99.90
1083;DHT22;530;51.448;7.238;2022-08-21T04:10:55;15.40;99.90
1083;DHT22;530;51.448;7.238;2022-08-21T04:13:22;15.50;99.90
1083;DHT22;530;51.448;7.238;2022-08-21T04:15:48;15.50;99.90
1083;DHT22;530;51.448;7.238;2022-08-21T04:18:14;15.50;99.90
1083;DHT22;530;51.448;7.238;2022-08-21T04:20:40;15.50;99.90
1083;DHT22;530;51.448;7.238;2022-08-21T04:23:07;15.40;99.90
1083;DHT22;530;51.448;7.238;2022-08-21T04:25:33;15.40;99.90
1083;DHT22;530;51.448;7.238;2022-08-21T04:27:59;15.40;99.90
1083;DHT22;530;51.448;7.238;2022-08-21T04:30:25;15.40;99.90
1083;DHT22;530;51.448;7.238;2022-08-21T04:32:51;15.50;99.90
1083;DHT22;530;51.448;7.238;2022-08-21T04:35:19;15.50;99.90
1083;DHT22;530;51.448;7.238;2022-08-21T04:37:45;15.40;99.90
1083;DHT22;530;51.448;7.238;2022-08-21T04:40:13;15.40;99.90
1083;DHT22;530;51.448;7.238;2022-08-21T04:42:54;15.30;99.90
1083;DHT22;530;51.448;7.238;2022-08-21T04:45:28;15.30;99.90
1083;DHT22;530;51.448;7.238;2022-08-21T04:47:56;15.20;99.90
1083;DHT22;530;51.448;7.238;2022-08-21T04:50:26;15.20;99.90
1083;DHT22;530;51.448;7.238;2022-08-21T04:52:53;15.20;99.90
1083;DHT22;530;51.448;7.238;2022-08-21T04:55:19;15.20;99.90
1083;DHT22;530;51.448;7.238;2022-08-21T04:57:46;15.30;99.90
1083;DHT22;530;51.448;7.238;2022-08-21T05:00:12;15.30;99.90
1083;DHT22;530;51.448;7.238;2022-08-21T05:02:40;15.40;99.90
1083;DHT22;530;51.448;7.238;2022-08-21T05:05:07;15.40;99.90
1083;DHT22;530;51.448;7.238;2022-08-21T05:07:33;15.40;99.90
1083;DHT22;530;51.448;7.238;2022-08-21T05:10:00;15.50;99.90
1083;DHT22;530;51.448;7.238;2022-08-21T05:12:26;15.50;99.90
1083;DHT22;530;51.448;7.238;2022-08-21T05:14:52;15.60;99.90
1083;DHT22;530;51.448;7.238;2022-08-21T05:17:17;15.70;99.90
1083;DHT22;530;51.448;7.238;2022-08-21T05:19:43;15.70;99.90
1083;DHT22;530;51.448;7.238;2022-08-21T05:22:09;15.80;99.90
1083;DHT22;530;51.448;7.238;2022-08-21T05:24:35;15.90;99.90
1083;DHT22;530;51.448;7.238;2022-08-21T05:27:01;15.90;99.90
1083;DHT22;530;51.448;7.238;2022-08-21T05:29:26;16.10;99.90
1083;DHT22;530;51.448;7.238;2022-08-21T05:31:52;16.20;99.90
1083;DHT22;530;51.448;7.238;2022-08-21T05:34:20;16.30;99.90
1083;DHT22;530;51.448;7.238;2022-08-21T05:36:46;16.40;99.90
1083;DHT22;530;51.448;7.238;2022-08-21T05:39:13;16.40;99.90
1083;DHT22;530;51.448;7.238;2022-08-21T05:41:39;16.50;99.90
1083;DHT22;530;51.448;7.238;2022-08-21T05:44:04;16.50;99.90
1083;DHT22;530;51.448;7.238;2022-08-21T05:46:30;16.60;99.90
1083;DHT22;530;51.448;7.238;2022-08-21T05:48:56;16.60;99.90
1083;DHT22;530;51.448;7.238;2022-08-21T05:51:21;16.70;99.90
1083;DHT22;530;51.448;7.238;2022-08-21T05:53:47;16.90;99.90
1083;DHT22;530;51.448;7.238;2022-08-21T05:56:13;17.10;99.90
1083;DHT22;530;51.448;7.238;2022-08-21T05:58:39;17.30;99.90
1083;DHT22;530;51.448;7.238;2022-08-21T06:01:06;17.50;99.90
1083;DHT22;530;51.448;7.238;2022-08-21T06:03:33;17.80;99.90
1083;DHT22;530;51.448;7.238;2022-08-21T06:06:00;18.10;99.90
1083;DHT22;530;51.448;7.238;2022-08-21T06:08:26;18.30;99.90
1083;DHT22;530;51.448;7.238;2022-08-21T06:10:53;18.60;99.90
1083;DHT22;530;51.448;7.238;2022-08-21T06:13:20;18.70;99.90
1083;DHT22;530;51.448;7.238;2022-08-21T06:15:47;18.90;99.90
1083;DHT22;530;51.448;7.238;2022-08-21T06:18:13;19.10;99.90
1083;DHT22;530;51.448;7.238;2022-08-21T06:20:40;19.20;99.90
1083;DHT22;530;51.448;7.238;2022-08-21T06:23:06;19.40;99.90
1083;DHT22;530;51.448;7.238;2022-08-21T06:25:32;19.50;99.90
1083;DHT22;530;51.448;7.238;2022-08-21T06:28:06;19.60;99.90
1083;DHT22;530;51.448;7.238;2022-08-21T06:30:33;19.70;99.90
1083;DHT22;530;51.448;7.238;2022-08-21T06:32:59;19.80;99.90
1083;DHT22;530;51.448;7.238;2022-08-21T06:35:25;20.00;99.90
1083;DHT22;530;51.448;7.238;2022-08-21T06:37:51;20.10;99.90
1083;DHT22;530;51.448;7.238;2022-08-21T06:40:17;20.10;99.90
1083;DHT22;530;51.448;7.238;2022-08-21T06:42:43;20.20;99.90
1083;DHT22;530;51.448;7.238;2022-08-21T06:45:09;20.40;99.90
1083;DHT22;530;51.448;7.238;2022-08-21T06:47:35;20.40;99.90
1083;DHT22;530;51.448;7.238;2022-08-21T06:50:01;20.60;99.90
1083;DHT22;530;51.448;7.238;2022-08-21T06:52:27;20.60;99.90
1083;DHT22;530;51.448;7.238;2022-08-21T06:54:53;20.70;99.90
1083;DHT22;530;51.448;7.238;2022-08-21T06:57:19;20.80;99.90
1083;DHT22;530;51.448;7.238;2022-08-21T06:59:44;20.90;99.90
1083;DHT22;530;51.448;7.238;2022-08-21T07:02:10;21.00;99.90
1083;DHT22;530;51.448;7.238;2022-08-21T07:04:36;21.10;99.90
1083;DHT22;530;51.448;7.238;2022-08-21T07:07:01;21.10;99.90
1083;DHT22;530;51.448;7.238;2022-08-21T07:09:27;21.20;99.90
1083;DHT22;530;51.448;7.238;2022-08-21T07:11:54;21.20;99.90
1083;DHT22;530;51.448;7.238;2022-08-21T07:14:21;21.20;99.90
1083;DHT22;530;51.448;7.238;2022-08-21T07:16:47;21.30;99.90
1083;DHT22;530;51.448;7.238;2022-08-21T07:19:13;21.40;99.90
1083;DHT22;530;51.448;7.238;2022-08-21T07:21:39;21.50;99.90
1083;DHT22;530;51.448;7.238;2022-08-21T07:24:04;21.50;99.90
1083;DHT22;530;51.448;7.238;2022-08-21T07:26:30;21.60;99.90
1083;DHT22;530;51.448;7.238;2022-08-21T07:28:56;21.50;99.90
1083;DHT22;530;51.448;7.238;2022-08-21T07:31:23;21.50;99.90
1083;DHT22;530;51.448;7.238;2022-08-21T07:33:50;21.50;99.90
1083;DHT22;530;51.448;7.238;2022-08-21T07:36:15;21.60;99.90
1083;DHT22;530;51.448;7.238;2022-08-21T07:38:41;21.50;99.90
1083;DHT22;530;51.448;7.238;2022-08-21T07:41:17;21.50;99.90
1083;DHT22;530;51.448;7.238;2022-08-21T07:43:44;21.50;99.90
1083;DHT22;530;51.448;7.238;2022-08-21T07:46:10;21.40;99.90
1083;DHT22;530;51.448;7.238;2022-08-21T07:48:36;21.40;99.90
1083;DHT22;530;51.448;7.238;2022-08-21T07:51:10;21.40;99.90
1083;DHT22;530;51.448;7.238;2022-08-21T07:53:37;21.40;99.90
1083;DHT22;530;51.448;7.238;2022-08-21T07:56:04;21.50;99.90
1083;DHT22;530;51.448;7.238;2022-08-21T07:58:30;21.40;99.90
1083;DHT22;530;51.448;7.238;2022-08-21T08:00:56;21.40;99.90
1083;DHT22;530;51.448;7.238;2022-08-21T08:03:22;21.40;99.90
1083;DHT22;530;51.448;7.238;2022-08-21T08:05:48;21.40;99.90
1083;DHT22;530;51.448;7.238;2022-08-21T08:08:13;21.40;99.90
1083;DHT22;530;51.448;7.238;2022-08-21T08:10:40;21.40;99.90
1083;DHT22;530;51.448;7.238;2022-08-21T08:13:05;21.30;99.90
1083;DHT22;530;51.448;7.238;2022-08-21T08:15:31;21.20;99.90
1083;DHT22;530;51.448;7.238;2022-08-21T08:17:57;21.20;99.90
1083;DHT22;530;51.448;7.238;2022-08-21T08:20:24;21.20;99.90
1083;DHT22;530;51.448;7.238;2022-08-21T08:22:54;21.20;99.90
1083;DHT22;530;51.448;7.238;2022-08-21T08:25:21;21.20;99.90
1083;DHT22;530;51.448;7.238;2022-08-21T08:27:48;21.30;99.90
1083;DHT22;530;51.448;7.238;2022-08-21T08:30:16;21.30;99.90
1083;DHT22;530;51.448;7.238;2022-08-21T08:32:42;21.30;99.90
1083;DHT22;530;51.448;7.238;2022-08-21T08:35:09;21.30;99.90
1083;DHT22;530;51.448;7.238;2022-08-21T08:37:37;21.30;99.90
1083;DHT22;530;51.448;7.238;2022-08-21T08:40:04;21.30;99.90
1083;DHT22;530;51.448;7.238;2022-08-21T08:42:34;21.30;99.90
1083;DHT22;530;51.448;7.238;2022-08-21T08:45:16;21.40;99.90
1083;DHT22;530;51.448;7.238;2022-08-21T08:47:49;21.50;99.90
1083;DHT22;530;51.448;7.238;2022-08-21T08:50:23;21.50;99.90
1083;DHT22;530;51.448;7.238;2022-08-21T08:52:59;21.50;99.90
1083;DHT22;530;51.448;7.238;2022-08-21T08:55:45;21.60;99.90
1083;DHT22;530;51.448;7.238;2022-08-21T08:58:24;21.60;99.90
1083;DHT22;530;51.448;7.238;2022-08-21T09:00:52;21.60;99.90
1083;DHT22;530;51.448;7.238;2022-08-21T09:03:18;21.60;99.90
1083;DHT22;530;51.448;7.238;2022-08-21T09:06:04;21.70;99.90
1083;DHT22;530;51.448;7.238;2022-08-21T09:08:50;21.60;99.90
1083;DHT22;530;51.448;7.238;2022-08-21T09:11:32;21.70;99.90
1083;DHT22;530;51.448;7.238;2022-08-21T09:14:32;21.80;99.90
1083;DHT22;530;51.448;7.238;2022-08-21T09:22:11;22.00;99.90
1083;DHT22;530;51.448;7.238;2022-08-21T09:27:33;22.20;99.90
1083;DHT22;530;51.448;7.238;2022-08-21T09:29:59;22.30;99.90
1083;DHT22;530;51.448;7.238;2022-08-21T09:32:31;22.40;99.90
1083;DHT22;530;51.448;7.238;2022-08-21T09:35:00;22.40;99.90
1083;DHT22;530;51.448;7.238;2022-08-21T09:37:31;22.50;99.90
1083;DHT22;530;51.448;7.238;2022-08-21T09:39:58;22.60;99.90
1083;DHT22;530;51.448;7.238;2022-08-21T09:42:30;22.70;99.90
1083;DHT22;530;51.448;7.238;2022-08-21T09:47:35;22.80;99.90
1083;DHT22;530;51.448;7.238;2022-08-21T09:50:19;22.70;99.90
1083;DHT22;530;51.448;7.238;2022-08-21T09:52:52;22.70;99.90
1083;DHT22;530;51.448;7.238;2022-08-21T09:55:47;22.80;99.90
1083;DHT22;530;51.448;7.238;2022-08-21T09:58:50;22.80;99.90
1083;DHT22;530;51.448;7.238;2022-08-21T10:01:24;22.90;99.90
1083;DHT22;530;51.448;7.238;2022-08-21T10:04:04;23.10;99.90
1083;DHT22;530;51.448;7.238;2022-08-21T10:06:30;23.20;99.90
1083;DHT22;530;51.448;7.238;2022-08-21T10:09:09;23.30;99.80
1083;DHT22;530;51.448;7.238;2022-08-21T10:11:35;23.50;99.90
1083;DHT22;530;51.448;7.238;2022-08-21T10:14:29;23.60;99.90
1083;DHT22;530;51.448;7.238;2022-08-21T10:23:05;23.80;98.90
1083;DHT22;530;51.448;7.238;2022-08-21T10:28:17;23.90;98.40
1083;DHT22;530;51.448;7.238;2022-08-21T10:30:57;24.00;98.60
1083;DHT22;530;51.448;7.238;2022-08-21T10:36:42;24.10;97.70
1083;DHT22;530;51.448;7.238;2022-08-21T10:39:21;24.10;97.10
1083;DHT22;530;51.448;7.238;2022-08-21T10:47:06;24.40;97.20
1083;DHT22;530;51.448;7.238;2022-08-21T10:55:26;24.70;97.70
1083;DHT22;530;51.448;7.238;2022-08-21T10:58:42;24.80;97.00
1083;DHT22;530;51.448;7.238;2022-08-21T11:01:13;24.80;95.80
1083;DHT22;530;51.448;7.238;2022-08-21T11:06:14;24.90;96.40
1083;DHT22;530;51.448;7.238;2022-08-21T11:08:44;25.00;96.80
1083;DHT22;530;51.448;7.238;2022-08-21T11:11:27;25.10;95.70
1083;DHT22;530;51.448;7.238;2022-08-21T11:19:00;25.30;96.30
1083;DHT22;530;51.448;7.238;2022-08-21T11:29:41;25.30;95.60
1083;DHT22;530;51.448;7.238;2022-08-21T11:32:37;25.30;95.00
1083;DHT22;530;51.448;7.238;2022-08-21T11:35:39;25.20;93.90
1083;DHT22;530;51.448;7.238;2022-08-21T11:38:42;25.20;94.70
1083;DHT22;530;51.448;7.238;2022-08-21T11:41:36;25.20;94.60
1083;DHT22;530;51.448;7.238;2022-08-21T11:47:15;25.20;95.30
1083;DHT22;530;51.448;7.238;2022-08-21T11:50:18;25.30;94.90
1083;DHT22;530;51.448;7.238;2022-08-21T11:55:55;25.30;93.30
1083;DHT22;530;51.448;7.238;2022-08-21T11:58:27;25.20;92.20
1083;DHT22;530;51.448;7.238;2022-08-21T12:01:04;24.90;93.40
1083;DHT22;530;51.448;7.238;2022-08-21T12:03:41;24.90;94.10
1083;DHT22;530;51.448;7.238;2022-08-21T12:06:09;24.90;94.20
1083;DHT22;530;51.448;7.238;2022-08-21T12:08:42;24.90;93.70
1083;DHT22;530;51.448;7.238;2022-08-21T12:16:43;25.10;96.30
1083;DHT22;530;51.448;7.238;2022-08-21T12:27:13;25.30;94.90
1083;DHT22;530;51.448;7.238;2022-08-21T12:29:49;25.30;94.60
1083;DHT22;530;51.448;7.238;2022-08-21T12:34:46;25.50;94.90
1083;DHT22;530;51.448;7.238;2022-08-21T12:39:45;25.70;93.80
1083;DHT22;530;51.448;7.238;2022-08-21T12:42:25;25.70;94.10
1083;DHT22;530;51.448;7.238;2022-08-21T12:45:00;25.80;94.40
1083;DHT22;530;51.448;7.238;2022-08-21T12:47:32;25.90;93.60
1083;DHT22;530;51.448;7.238;2022-08-21T12:50:11;26.00;91.90
1083;DHT22;530;51.448;7.238;2022-08-21T12:52:59;26.00;91.20
1083;DHT22;530;51.448;7.238;2022-08-21T12:55:32;26.00;92.60
1083;DHT22;530;51.448;7.238;2022-08-21T12:57:58;26.00;91.70
1083;DHT22;530;51.448;7.238;2022-08-21T13:00:27;26.00;90.50
1083;DHT22;530;51.448;7.238;2022-08-21T13:02:55;25.90;92.10
1083;DHT22;530;51.448;7.238;2022-08-21T13:07:50;25.90;91.70
1083;DHT22;530;51.448;7.238;2022-08-21T13:10:25;25.90;92.10
1083;DHT22;530;51.448;7.238;2022-08-21T13:12:59;25.90;92.10
1083;DHT22;530;51.448;7.238;2022-08-21T13:15:32;25.80;91.90
1083;DHT22;530;51.448;7.238;2022-08-21T13:17:58;25.70;92.00
1083;DHT22;530;51.448;7.238;2022-08-21T13:20:31;25.60;92.50
1083;DHT22;530;51.448;7.238;2022-08-21T13:22:57;25.50;92.30
1083;DHT22;530;51.448;7.238;2022-08-21T13:25:28;25.50;92.90
1083;DHT22;530;51.448;7.238;2022-08-21T13:28:09;25.60;93.40
1083;DHT22;530;51.448;7.238;2022-08-21T13:30:44;25.70;92.90
1083;DHT22;530;51.448;7.238;2022-08-21T13:33:13;25.70;93.40
1083;DHT22;530;51.448;7.238;2022-08-21T13:35:50;25.70;93.90
1083;DHT22;530;51.448;7.238;2022-08-21T13:38:19;25.80;94.10
1083;DHT22;530;51.448;7.238;2022-08-21T13:40:53;25.80;93.40
1083;DHT22;530;51.448;7.238;2022-08-21T13:43:26;26.00;94.60
1083;DHT22;530;51.448;7.238;2022-08-21T13:45:54;26.10;94.00
1083;DHT22;530;51.448;7.238;2022-08-21T13:48:28;26.00;91.30
1083;DHT22;530;51.448;7.238;2022-08-21T13:50:55;25.80;91.90
1083;DHT22;530;51.448;7.238;2022-08-21T13:53:22;25.60;92.60
1083;DHT22;530;51.448;7.238;2022-08-21T13:55:49;25.50;92.70
1083;DHT22;530;51.448;7.238;2022-08-21T13:58:25;25.50;93.20
1083;DHT22;530;51.448;7.238;2022-08-21T14:00:51;25.70;93.50
1083;DHT22;530;51.448;7.238;2022-08-21T14:03:30;25.70;93.30
1083;DHT22;530;51.448;7.238;2022-08-21T14:05:56;25.70;92.30
1083;DHT22;530;51.448;7.238;2022-08-21T14:10:58;25.60;92.10
1083;DHT22;530;51.448;7.238;2022-08-21T14:15:58;25.70;92.90
1083;DHT22;530;51.448;7.238;2022-08-21T14:18:24;25.70;92.20
1083;DHT22;530;51.448;7.238;2022-08-21T14:20:57;25.90;93.10
1083;DHT22;530;51.448;7.238;2022-08-21T14:23:28;26.00;93.00
1083;DHT22;530;51.448;7.238;2022-08-21T14:25:59;26.00;92.00
1083;DHT22;530;51.448;7.238;2022-08-21T14:28:34;26.10;93.10
1083;DHT22;530;51.448;7.238;2022-08-21T14:31:21;26.00;91.80
1083;DHT22;530;51.448;7.238;2022-08-21T14:33:47;26.00;92.30
1083;DHT22;530;51.448;7.238;2022-08-21T14:36:13;25.80;92.30
1083;DHT22;530;51.448;7.238;2022-08-21T14:38:40;25.70;91.90
1083;DHT22;530;51.448;7.238;2022-08-21T14:41:24;25.50;91.30
1083;DHT22;530;51.448;7.238;2022-08-21T14:43:52;25.40;92.10
1083;DHT22;530;51.448;7.238;2022-08-21T14:46:24;25.20;92.30
1083;DHT22;530;51.448;7.238;2022-08-21T14:48:50;25.20;92.50
1083;DHT22;530;51.448;7.238;2022-08-21T14:51:16;25.10;92.60
1083;DHT22;530;51.448;7.238;2022-08-21T14:53:42;25.10;93.40
1083;DHT22;530;51.448;7.238;2022-08-21T14:56:08;25.10;93.80
1083;DHT22;530;51.448;7.238;2022-08-21T14:58:47;25.10;93.80
1083;DHT22;530;51.448;7.238;2022-08-21T15:01:15;25.00;93.90
1083;DHT22;530;51.448;7.238;2022-08-21T15:03:42;25.00;93.60
1083;DHT22;530;51.448;7.238;2022-08-21T15:06:09;25.00;92.60
1083;DHT22;530;51.448;7.238;2022-08-21T15:08:35;25.00;93.20
1083;DHT22;530;51.448;7.238;2022-08-21T15:11:01;25.00;93.20
1083;DHT22;530;51.448;7.238;2022-08-21T15:13:28;25.00;94.00
1083;DHT22;530;51.448;7.238;2022-08-21T15:15:54;25.00;94.20
1083;DHT22;530;51.448;7.238;2022-08-21T15:18:26;25.00;93.90
1083;DHT22;530;51.448;7.238;2022-08-21T15:20:52;25.10;94.00
1083;DHT22;530;51.448;7.238;2022-08-21T15:23:18;25.20;93.90
1083;DHT22;530;51.448;7.238;2022-08-21T15:25:46;25.20;93.30
1083;DHT22;530;51.448;7.238;2022-08-21T15:28:13;25.10;93.00
1083;DHT22;530;51.448;7.238;2022-08-21T15:30:41;25.10;93.50
1083;DHT22;530;51.448;7.238;2022-08-21T15:33:07;25.20;94.00
1083;DHT22;530;51.448;7.238;2022-08-21T15:35:34;25.20;93.60
1083;DHT22;530;51.448;7.238;2022-08-21T15:37:59;25.30;93.60
1083;DHT22;530;51.448;7.238;2022-08-21T15:40:25;25.20;93.60
1083;DHT22;530;51.448;7.238;2022-08-21T15:42:59;25.20;93.80
1083;DHT22;530;51.448;7.238;2022-08-21T15:45:25;25.20;94.30
1083;DHT22;530;51.448;7.238;2022-08-21T15:47:51;25.20;94.20
1083;DHT22;530;51.448;7.238;2022-08-21T15:50:17;25.10;94.00
1083;DHT22;530;51.448;7.238;2022-08-21T15:52:44;25.10;94.00
1083;DHT22;530;51.448;7.238;2022-08-21T15:55:13;25.00;93.80
1083;DHT22;530;51.448;7.238;2022-08-21T15:57:44;25.00;93.60
1083;DHT22;530;51.448;7.238;2022-08-21T16:00:20;25.00;93.50
1083;DHT22;530;51.448;7.238;2022-08-21T16:02:49;24.90;92.80
1083;DHT22;530;51.448;7.238;2022-08-21T16:05:17;24.80;92.20
1083;DHT22;530;51.448;7.238;2022-08-21T16:07:45;24.80;93.30
1083;DHT22;530;51.448;7.238;2022-08-21T16:10:12;24.70;93.30
1083;DHT22;530;51.448;7.238;2022-08-21T16:12:42;24.80;93.40
1083;DHT22;530;51.448;7.238;2022-08-21T16:15:10;24.70;93.50
1083;DHT22;530;51.448;7.238;2022-08-21T16:17:39;24.70;93.50
1083;DHT22;530;51.448;7.238;2022-08-21T16:20:12;24.80;94.10
1083;DHT22;530;51.448;7.238;2022-08-21T16:22:37;24.80;94.00
1083;DHT22;530;51.448;7.238;2022-08-21T16:25:04;24.80;94.00
1083;DHT22;530;51.448;7.238;2022-08-21T16:27:31;24.80;93.90
1083;DHT22;530;51.448;7.238;2022-08-21T16:29:57;24.80;94.10
1083;DHT22;530;51.448;7.238;2022-08-21T16:32:23;24.80;93.90
1083;DHT22;530;51.448;7.238;2022-08-21T16:34:49;24.90;94.00
1083;DHT22;530;51.448;7.238;2022-08-21T16:37:16;24.80;94.30
1083;DHT22;530;51.448;7.238;2022-08-21T16:39:42;24.90;94.50
1083;DHT22;530;51.448;7.238;2022-08-21T16:42:12;24.80;94.30
1083;DHT22;530;51.448;7.238;2022-08-21T16:44:41;24.80;94.00
1083;DHT22;530;51.448;7.238;2022-08-21T16:47:07;24.70;94.30
1083;DHT22;530;51.448;7.238;2022-08-21T16:49:33;24.60;94.20
1083;DHT22;530;51.448;7.238;2022-08-21T16:51:59;24.50;94.60
1083;DHT22;530;51.448;7.238;2022-08-21T16:54:25;24.50;94.90
1083;DHT22;530;51.448;7.238;2022-08-21T16:56:51;24.40;95.00
1083;DHT22;530;51.448;7.238;2022-08-21T16:59:17;24.40;95.10
1083;DHT22;530;51.448;7.238;2022-08-21T17:01:43;24.40;95.30
1083;DHT22;530;51.448;7.238;2022-08-21T17:04:09;24.40;95.30
1083;DHT22;530;51.448;7.238;2022-08-21T17:06:36;24.30;95.00
1083;DHT22;530;51.448;7.238;2022-08-21T17:09:02;24.30;95.30
1083;DHT22;530;51.448;7.238;2022-08-21T17:11:32;24.20;95.40
1083;DHT22;530;51.448;7.238;2022-08-21T17:14:00;24.20;95.50
1083;DHT22;530;51.448;7.238;2022-08-21T17:16:27;24.20;95.80
1083;DHT22;530;51.448;7.238;2022-08-21T17:18:52;24.10;95.70
1083;DHT22;530;51.448;7.238;2022-08-21T17:21:18;24.10;95.60
1083;DHT22;530;51.448;7.238;2022-08-21T17:23:45;24.00;95.50
1083;DHT22;530;51.448;7.238;2022-08-21T17:26:12;24.00;95.80
1083;DHT22;530;51.448;7.238;2022-08-21T17:28:38;23.90;95.60
1083;DHT22;530;51.448;7.238;2022-08-21T17:31:06;23.90;96.00
1083;DHT22;530;51.448;7.238;2022-08-21T17:33:36;23.80;95.40
1083;DHT22;530;51.448;7.238;2022-08-21T17:36:05;23.80;96.00
1083;DHT22;530;51.448;7.238;2022-08-21T17:38:31;23.70;96.30
1083;DHT22;530;51.448;7.238;2022-08-21T17:40:56;23.70;96.20
1083;DHT22;530;51.448;7.238;2022-08-21T17:43:23;23.70;96.10
1083;DHT22;530;51.448;7.238;2022-08-21T17:45:49;23.70;96.10
1083;DHT22;530;51.448;7.238;2022-08-21T17:48:15;23.60;96.40
1083;DHT22;530;51.448;7.238;2022-08-21T17:50:41;23.60;96.20
1083;DHT22;530;51.448;7.238;2022-08-21T17:53:07;23.50;96.00